ADDS METAR Data INFO
IDs: Format: Raw Decoded Include TAF

Data at: 1017 UTC 14 Dec 2017

KMGG 140955Z AUTO 00000KT 7SM BKN030 M08/M10 A3000 RMK AO2 T10851101
KMGG 140935Z AUTO 31004KT 10SM -SN OVC030 M08/M10 A3001 RMK AO2 T10801098
KMGG 140915Z AUTO 32004KT 10SM OVC032 M08/M10 A3002 RMK AO2 T10811100
KMGG 140855Z AUTO 30004KT 10SM OVC032 M08/M10 A3001 RMK AO2 T10811098
KMGG 140835Z AUTO 29005KT 10SM OVC032 M08/M10 A3001 RMK AO2 T10811097
KMGG 140815Z AUTO 30005KT 10SM OVC032 M08/M10 A3001 RMK AO2 T10821098
KMGG 140755Z AUTO 28004KT 10SM OVC032 M08/M10 A3001 RMK AO2 T10811098
KMGG 140735Z AUTO 31004KT 10SM OVC032 M08/M10 A2999 RMK AO2 T10801097
KMGG 140715Z AUTO 30005KT 10SM OVC032 M08/M10 A2999 RMK AO2 T10801097
KMGG 140655Z AUTO 29005KT 10SM OVC032 M08/M10 A2999 RMK AO2 T10811100
KMGG 140635Z AUTO 30005KT 10SM OVC032 M08/M10 A2999 RMK AO2 T10811100
KMGG 140615Z AUTO 31005KT 10SM OVC032 M08/M10 A2999 RMK AO2 T10811100
KMGG 140555Z AUTO 30004KT 10SM OVC032 M08/M10 A2998 RMK AO2 T10811098 11051 21092
KMGG 140535Z AUTO 29006KT 10SM OVC032 M08/M10 A2999 RMK AO2 T10851100
KMGG 140515Z AUTO 29003KT 10SM SCT032 M09/M10 A2997 RMK AO2 T10911105
KMGG 140455Z AUTO 32004KT 10SM CLR M09/M10 A2997 RMK AO2 T10901105
KMGG 140435Z AUTO 31004KT 10SM CLR M09/M10 A2995 RMK AO2 T10861104
KMGG 140415Z AUTO 32005KT 10SM CLR M08/M10 A2995 RMK AO2 T10851103
KMGG 140355Z AUTO 33006KT 10SM CLR M08/M10 A2995 RMK AO2 T10831100 410061085
KMGG 140335Z AUTO 36007KT 10SM CLR M08/M10 A2994 RMK AO2 T10811100
KMGG 140315Z AUTO 35007KT 10SM CLR M08/M10 A2993 RMK AO2 T10781097
KMGG 140255Z AUTO 34006KT 10SM CLR M07/M09 A2993 RMK AO2 T10751095
KMGG 140235Z AUTO 34005KT 10SM CLR M07/M09 A2993 RMK AO2 T10711093
KMGG 140215Z AUTO 36006KT 10SM SCT055 M07/M09 A2992 RMK AO2 T10661090
KMGG 140155Z AUTO 33007KT 10SM OVC055 M06/M09 A2993 RMK AO2 T10601086
KMGG 140135Z AUTO 36008KT 10SM OVC055 M06/M08 A2991 RMK AO2 T10571085
KMGG 140115Z AUTO 32008KT 10SM SCT045 OVC055 M06/M08 A2991 RMK AO2 T10581085
KMGG 140055Z AUTO 34010KT 10SM SCT034 OVC045 M06/M08 A2990 RMK AO2 T10561082
KMGG 140035Z AUTO 33010KT 10SM BKN032 OVC043 M05/M08 A2989 RMK AO2 T10531080
KMGG 140015Z AUTO 34008KT 10SM -SN OVC032 M05/M08 A2988 RMK AO2 T10521078
KMGG 132355Z AUTO 33009KT 10SM -SN BKN032 OVC038 M05/M08 A2987 RMK AO2 T10511077 11032 21051
KMGG 132335Z AUTO 33010KT 10SM -SN BKN038 OVC050 M05/M07 A2985 RMK AO2 T10501075
KMGG 132315Z AUTO 33010KT 7SM -SN SCT034 BKN050 OVC070 M05/M07 A2984 RMK AO2 T10501075
KMGG 132255Z AUTO 33011KT 5SM -SN SCT016 BKN050 OVC070 M05/M07 A2981 RMK AO2 T10481071
KMGG 132235Z AUTO 34012G16KT 7SM -SN OVC016 M05/M07 A2980 RMK AO2 T10461068
KMGG 132215Z AUTO 34009G16KT 5SM -SN OVC014 M04/M06 A2978 RMK AO2 T10441062
KMGG 132155Z AUTO 34010G18KT 7SM OVC012 M04/M06 A2977 RMK AO2 T10431060
KMGG 132135Z AUTO 34012G18KT 7SM OVC012 M04/M06 A2975 RMK AO2 T10421059
KMGG 132115Z AUTO 34013KT 7SM OVC012 M04/M06 A2973 RMK AO2 T10401057
KMGG 132055Z AUTO 34012KT 7SM OVC012 M04/M06 A2972 RMK AO2 T10401057
KMGG 132035Z AUTO 34015G20KT 7SM OVC012 M04/M06 A2970 RMK AO2 T10381056
KMGG 132015Z AUTO 34016G21KT 10SM OVC012 M04/M05 A2969 RMK AO2 T10361055
KMGG 131955Z AUTO 33012KT 7SM OVC012 M04/M05 A2968 RMK AO2 T10371055
KMGG 131935Z AUTO 34012G17KT 10SM OVC012 M04/M05 A2967 RMK AO2 T10371055
KMGG 131915Z AUTO 33012G17KT 10SM OVC012 M04/M06 A2967 RMK AO2 T10371056
KMGG 131855Z AUTO 35013G18KT 10SM OVC012 M04/M06 A2966 RMK AO2 T10371056
KMGG 131835Z AUTO 35013G18KT 10SM OVC012 M04/M05 A2965 RMK AO2 T10361055
KMGG 131815Z AUTO 34015G20KT 10SM OVC012 M03/M05 A2964 RMK AO2 T10331052
KMGG 131755Z AUTO 35014G21KT 10SM OVC012 M03/M05 A2963 RMK AO2 T10321052 11007 21032
KMGG 131735Z AUTO 34012G21KT 10SM OVC012 M03/M05 A2961 RMK AO2 T10291050
KMGG 131715Z AUTO 34017G24KT 10SM OVC012 M03/M05 A2961 RMK AO2 T10291049
KMGG 131655Z AUTO 34014G23KT 10SM OVC012 M02/M04 A2960 RMK AO2 T10251044
KMGG 131635Z AUTO 34012G24KT 7SM OVC012 M02/M04 A2958 RMK AO2 T10201040
KMGG 131615Z AUTO 34014G25KT 7SM OVC012 M02/M04 A2957 RMK AO2 T10171036
KMGG 131555Z AUTO 35015G26KT 10SM OVC014 M01/M03 A2955 RMK AO2 T10121032
KMGG 131535Z AUTO 34015G19KT 10SM OVC014 M01/M03 A2953 RMK AO2 T10101028
KMGG 131515Z AUTO 33019G24KT 10SM BKN014 OVC020 M01/M02 A2952 RMK AO2 T10071025
KMGG 131455Z AUTO 33018G23KT 10SM BKN012 OVC018 M01/M02 A2950 RMK AO2 T10101023
KMGG 131435Z AUTO 33014G19KT 10SM OVC010 M01/M02 A2949 RMK AO2 T10151025
KMGG 131415Z AUTO 32011G16KT 10SM OVC010 M02/M03 A2948 RMK AO2 T10211030
KMGG 131355Z AUTO 33010KT 10SM OVC010 M02/M03 A2945 RMK AO2 T10251033
KMGG 131335Z AUTO 33010G14KT 7SM OVC012 M03/M04 A2944 RMK AO2 T10301036
KMGG 131315Z AUTO 32007KT 1 1/2SM -SN SCT010 OVC018 M03/M04 A2943 RMK AO2 T10301036
KMGG 131255Z AUTO 33007KT 1 1/2SM -SN BKN018 BKN027 OVC033 M03/M03 A2942 RMK AO2 T10281035
KMGG 131235Z AUTO 34008KT 10SM UP BKN046 BKN065 OVC110 M03/M03 A2940 RMK AO2 T10261034
KMGG 131215Z AUTO 35008KT 10SM BKN110 M02/M03 A2938 RMK AO2 T10251034
KMGG 131155Z AUTO 36008KT 10SM CLR M02/M03 A2937 RMK AO2 T10191030 11006 21019
KMGG 131135Z AUTO 35006KT 10SM CLR M02/M03 A2936 RMK AO2 T10181028
KMGG 131115Z AUTO 31005KT 10SM CLR M02/M03 A2935 RMK AO2 T10171029
KMGG 131055Z AUTO 29005KT 10SM CLR M01/M03 A2935 RMK AO2 T10131026
KMGG 131035Z AUTO 16004KT 10SM CLR M01/M02 A2932 RMK AO2 T10121025
KMGG 131015Z AUTO 00000KT 10SM CLR M01/M03 A2935 RMK AO2 T10121026
KMGG 130955Z AUTO 00000KT 10SM CLR M01/M03 A2935 RMK AO2 T10131027
KMGG 130935Z AUTO 00000KT 10SM CLR M01/M02 A2937 RMK AO2 T10101025
KMGG 130915Z AUTO 00000KT 10SM CLR M01/M02 A2938 RMK AO2 T10101025
KMGG 130855Z AUTO 00000KT 10SM CLR M01/M02 A2939 RMK AO2 T10101025
KMGG 130835Z AUTO 00000KT 10SM CLR M01/M02 A2940 RMK AO2 T10091024
KMGG 130815Z AUTO 14004KT 10SM SCT100 M01/M02 A2940 RMK AO2 T10071022
KMGG 130755Z AUTO 13004KT 10SM OVC090 M01/M02 A2941 RMK AO2 T10061022
KMGG 130735Z AUTO 16004KT 10SM SCT090 M01/M02 A2943 RMK AO2 T10071023
KMGG 130715Z AUTO 17005KT 10SM SCT120 M01/M02 A2946 RMK AO2 T10071022
KMGG 130655Z AUTO 16005KT 10SM BKN110 M01/M02 A2946 RMK AO2 T10071022
KMGG 130635Z AUTO 17005KT 10SM BKN110 M01/M02 A2949 RMK AO2 T10091022
KMGG 130615Z AUTO 16006KT 10SM CLR M01/M02 A2950 RMK AO2 T10121024
KMGG 130555Z AUTO 17005KT 10SM SCT110 M02/M03 A2951 RMK AO2 T10171027 11017 21055
KMGG 130535Z AUTO 17006KT 10SM CLR M02/M03 A2954 RMK AO2 T10211030
KMGG 130515Z AUTO 17004KT 10SM CLR M02/M03 A2957 RMK AO2 T10201030
KMGG 130455Z AUTO 17004KT 10SM CLR M02/M03 A2958 RMK AO2 T10231031
KMGG 130435Z AUTO 18006KT 10SM CLR M02/M03 A2959 RMK AO2 T10251034
KMGG 130415Z AUTO 17006KT 10SM SCT060 M03/M04 A2962 RMK AO2 T10261037
KMGG 130355Z AUTO 18006KT 10SM OVC060 M03/M04 A2965 RMK AO2 T10331043 410331135
KMGG 130335Z AUTO 17005KT 10SM OVC060 M04/M05 A2967 RMK AO2 T10401050
KMGG 130315Z AUTO 16004KT 10SM SCT060 M04/M06 A2968 RMK AO2 T10451056
KMGG 130255Z AUTO 16005KT 10SM CLR M05/M06 A2970 RMK AO2 T10501061
KMGG 130235Z AUTO 15004KT 10SM CLR M05/M06 A2973 RMK AO2 T10511065
KMGG 130215Z AUTO 14005KT 10SM SCT080 M05/M06 A2974 RMK AO2 T10501065
KMGG 130155Z AUTO 14004KT 10SM SCT055 BKN080 M05/M06 A2976 RMK AO2 T10471064
KMGG 130135Z AUTO 13005KT 10SM SCT055 BKN065 OVC080 M05/M06 A2978 RMK AO2 T10461065
KMGG 130115Z AUTO 14005KT 10SM BKN055 OVC065 M05/M07 A2979 RMK AO2 T10471066
KMGG 130055Z AUTO 14004KT 10SM OVC065 M05/M07 A2980 RMK AO2 T10501070
KMGG 130035Z AUTO 14005KT 10SM OVC065 M05/M07 A2982 RMK AO2 T10501070
KMGG 130015Z AUTO 14005KT 10SM OVC070 M05/M07 A2983 RMK AO2 T10521072
KMGG 122355Z AUTO 14005KT 10SM OVC070 M05/M07 A2984 RMK AO2 T10551075 11042 21075
KMGG 122335Z AUTO 14005KT 10SM BKN070 BKN085 M06/M07 A2985 RMK AO2 T10561075
KMGG 122315Z AUTO 15006KT 10SM CLR M06/M08 A2986 RMK AO2 T10561076
KMGG 122255Z AUTO 14004KT 10SM CLR M05/M07 A2987 RMK AO2 T10501071
KMGG 122235Z AUTO 15006KT 10SM CLR M05/M07 A2988 RMK AO2 T10481070